Time;durP1;ratioP1;P1;durP2;ratioP2;P2;SDS_P1;SDS_P2;PMS_P1;PMS_P2;Temp;Humidity;BMP_temperature;BMP_pressure;BME280_temperature;BME280_humidity;BME280_pressure;Samples;Min_cycle;Max_cycle;Signal;HPM_P1;HPM_P2
2020/12/07 00:00:36;;;;;;;46.43;25.97;;;5.70;92.10;;;;;;5053191;28;20033;-80
2020/12/07 00:03:03;;;;;;;48.60;25.60;;;5.70;92.10;;;;;;5051830;28;20488;-79
2020/12/07 00:05:29;;;;;;;44.93;26.03;;;5.60;92.10;;;;;;5052072;28;20389;-79
2020/12/07 00:07:55;;;;;;;48.80;24.53;;;5.70;92.20;;;;;;5051768;28;20029;-80
2020/12/07 00:10:20;;;;;;;45.57;26.33;;;5.60;92.10;;;;;;5051914;28;20025;-79
2020/12/07 00:12:46;;;;;;;47.77;25.63;;;5.70;92.50;;;;;;5051754;28;20021;-80
2020/12/07 00:15:12;;;;;;;46.50;25.23;;;5.70;92.20;;;;;;5053081;28;20503;-79
2020/12/07 00:17:38;;;;;;;49.93;27.87;;;5.60;92.30;;;;;;5052975;28;20079;-79
2020/12/07 00:20:07;;;;;;;43.00;25.40;;;5.70;92.20;;;;;;5053154;28;20037;-80
2020/12/07 00:22:32;;;;;;;45.97;24.60;;;5.70;92.30;;;;;;5051994;28;20469;-80
2020/12/07 00:24:59;;;;;;;45.57;24.60;;;5.70;92.20;;;;;;5051798;28;20036;-80
2020/12/07 00:27:30;;;;;;;47.47;25.37;;;5.70;92.20;;;;;;5052927;28;20033;-79
2020/12/07 00:29:56;;;;;;;47.17;25.53;;;5.70;92.20;;;;;;5051819;28;20469;-80
2020/12/07 00:32:23;;;;;;;46.33;25.80;;;5.70;92.30;;;;;;5056782;28;20376;-80
2020/12/07 00:34:49;;;;;;;41.67;24.20;;;5.70;92.30;;;;;;5055465;28;20550;-80
2020/12/07 00:37:15;;;;;;;43.63;24.77;;;5.70;92.20;;;;;;5056967;28;20112;-80
2020/12/07 00:39:41;;;;;;;47.20;26.00;;;5.70;92.30;;;;;;5055428;28;20016;-80
2020/12/07 00:42:09;;;;;;;47.17;26.40;;;5.70;92.30;;;;;;5055873;28;20021;-79
2020/12/07 00:44:38;;;;;;;45.37;25.57;;;5.70;92.30;;;;;;5056695;28;20021;-80
2020/12/07 00:47:04;;;;;;;52.27;28.33;;;5.70;92.30;;;;;;5039186;28;20428;-80
2020/12/07 00:49:31;;;;;;;47.30;26.00;;;5.70;92.30;;;;;;5055115;28;20029;-80
2020/12/07 00:51:56;;;;;;;43.70;23.47;;;5.70;92.20;;;;;;5056962;28;20052;-80
2020/12/07 00:54:22;;;;;;;45.37;25.47;;;5.70;92.20;;;;;;5056667;28;20025;-81
2020/12/07 00:56:55;;;;;;;51.03;27.00;;;5.70;92.20;;;;;;5055168;28;20067;-80
2020/12/07 00:59:22;;;;;;;52.63;27.33;;;5.70;92.30;;;;;;5055078;28;20029;-81
2020/12/07 01:01:48;;;;;;;49.27;24.97;;;5.70;92.30;;;;;;5055074;28;20373;-81
2020/12/07 01:04:14;;;;;;;43.63;25.07;;;5.70;92.40;;;;;;5055098;28;20025;-81
2020/12/07 01:06:40;;;;;;;47.10;25.57;;;5.70;92.30;;;;;;5038267;28;20086;-81
2020/12/07 01:09:06;;;;;;;47.70;24.57;;;5.70;92.30;;;;;;5056160;28;20021;-81
2020/12/07 01:11:32;;;;;;;43.30;24.37;;;5.70;92.30;;;;;;5055075;28;20096;-81
2020/12/07 01:13:57;;;;;;;43.63;25.70;;;5.80;92.30;;;;;;5054869;28;20074;-81
2020/12/07 01:16:23;;;;;;;45.83;25.10;;;5.70;92.30;;;;;;5056090;28;20484;-81
2020/12/07 01:18:50;;;;;;;41.30;24.00;;;5.70;92.40;;;;;;5055903;28;20021;-80
2020/12/07 01:21:17;;;;;;;44.83;24.50;;;5.70;92.50;;;;;;5056021;28;20033;-80
2020/12/07 01:23:44;;;;;;;43.77;24.73;;;5.70;92.50;;;;;;5054683;28;20476;-81
2020/12/07 01:26:14;;;;;;;46.07;24.57;;;5.70;92.50;;;;;;5054766;28;20025;-82
2020/12/07 01:28:41;;;;;;;46.33;26.33;;;5.60;92.40;;;;;;5037834;28;20035;-81
2020/12/07 01:31:06;;;;;;;49.73;27.63;;;5.70;92.50;;;;;;5054553;28;20056;-81
2020/12/07 01:33:32;;;;;;;50.03;29.00;;;5.60;92.50;;;;;;5054451;28;20025;-81
2020/12/07 01:35:58;;;;;;;50.03;28.93;;;5.70;92.60;;;;;;5055620;28;20494;-80
2020/12/07 01:38:24;;;;;;;52.00;30.33;;;5.60;92.60;;;;;;5054300;28;20511;-80
2020/12/07 01:40:50;;;;;;;56.90;30.70;;;5.50;92.60;;;;;;5055772;28;20044;-80
2020/12/07 01:43:16;;;;;;;54.23;31.97;;;5.50;92.70;;;;;;5036929;28;20025;-81
2020/12/07 01:45:42;;;;;;;55.90;32.67;;;5.50;92.80;;;;;;5055541;28;20029;-80
2020/12/07 01:48:09;;;;;;;61.13;32.33;;;5.40;92.90;;;;;;5054683;28;20056;-80
2020/12/07 01:50:39;;;;;;;55.00;28.97;;;5.30;92.90;;;;;;5054080;28;20049;-80
2020/12/07 01:53:05;;;;;;;60.80;32.03;;;5.40;93.00;;;;;;5054025;28;20075;-81
2020/12/07 01:55:31;;;;;;;61.23;33.37;;;5.30;93.10;;;;;;5054049;28;20409;-82
2020/12/07 01:57:56;;;;;;;66.83;32.63;;;5.30;93.30;;;;;;5037369;28;20028;-81
2020/12/07 02:00:23;;;;;;;72.83;35.57;;;5.20;93.20;;;;;;5055260;28;20033;-81
2020/12/07 02:02:49;;;;;;;66.17;33.63;;;5.30;93.30;;;;;;5055602;28;20021;-80
2020/12/07 02:05:15;;;;;;;65.53;32.37;;;5.20;93.40;;;;;;5037450;28;20032;-82
2020/12/07 02:07:40;;;;;;;64.77;31.67;;;5.20;93.50;;;;;;5053725;28;20048;-79
2020/12/07 02:10:06;;;;;;;72.90;35.10;;;5.10;93.70;;;;;;5053822;28;20064;-81
2020/12/07 02:12:31;;;;;;;66.70;33.70;;;5.10;93.90;;;;;;5037378;28;20028;-81
2020/12/07 02:14:57;;;;;;;70.70;34.23;;;5.10;93.80;;;;;;5054799;28;20381;-82
2020/12/07 02:17:23;;;;;;;72.50;33.63;;;5.10;93.90;;;;;;5053602;28;20120;-82
2020/12/07 02:19:50;;;;;;;71.20;33.33;;;5.10;93.90;;;;;;5037043;28;20039;-81
2020/12/07 02:22:15;;;;;;;76.70;34.43;;;5.10;93.90;;;;;;5055165;28;20021;-83
2020/12/07 02:24:41;;;;;;;72.57;33.80;;;5.10;94.00;;;;;;5054780;28;20045;-81
2020/12/07 02:27:08;;;;;;;73.90;35.03;;;5.10;94.10;;;;;;5053527;28;20029;-81
2020/12/07 02:29:34;;;;;;;81.87;36.10;;;5.00;94.10;;;;;;5036975;28;20442;-81
2020/12/07 02:32:17;;;;;;;73.60;34.70;;;5.00;94.20;;;;;;5053456;28;20053;-82
2020/12/07 02:34:43;;;;;;;75.72;34.58;;;5.00;94.30;;;;;;5053361;28;20112;-81
2020/12/07 02:37:10;;;;;;;76.83;35.53;;;5.00;94.30;;;;;;5053274;28;20061;-82
2020/12/07 02:39:36;;;;;;;79.23;34.87;;;4.90;94.30;;;;;;5053223;28;20051;-81
2020/12/07 02:42:03;;;;;;;65.40;34.53;;;4.90;94.40;;;;;;5053281;28;20040;-81
2020/12/07 02:44:29;;;;;;;73.67;32.33;;;4.90;94.40;;;;;;5054389;28;20228;-81
2020/12/07 02:46:54;;;;;;;59.43;29.20;;;5.00;94.40;;;;;;5053100;28;20135;-82
2020/12/07 02:49:20;;;;;;;59.43;29.43;;;5.00;94.40;;;;;;5052972;28;20032;-81
2020/12/07 02:51:46;;;;;;;74.90;30.97;;;4.90;94.40;;;;;;5036483;28;20065;-82
2020/12/07 02:54:12;;;;;;;70.80;31.53;;;5.00;94.50;;;;;;5052276;28;20056;-81
2020/12/07 02:56:38;;;;;;;60.63;28.33;;;4.90;94.50;;;;;;5053001;28;20510;-82
2020/12/07 02:59:03;;;;;;;59.40;28.47;;;5.00;94.50;;;;;;5054125;28;20021;-82
2020/12/07 03:01:29;;;;;;;69.40;28.47;;;4.90;94.40;;;;;;5052828;28;20481;-81
2020/12/07 03:03:54;;;;;;;58.43;26.37;;;5.10;94.50;;;;;;5019829;28;20067;-81
2020/12/07 03:06:20;;;;;;;61.33;27.43;;;5.00;94.50;;;;;;5053849;28;20049;-81
2020/12/07 03:08:45;;;;;;;63.80;29.33;;;5.00;94.50;;;;;;5052689;28;20055;-82
2020/12/07 03:11:11;;;;;;;67.97;30.20;;;5.10;94.60;;;;;;5052581;28;20025;-81
2020/12/07 03:13:37;;;;;;;62.97;28.90;;;5.00;94.60;;;;;;5035943;28;20366;-82
2020/12/07 03:16:02;;;;;;;58.43;26.97;;;5.00;94.60;;;;;;5035979;28;20025;-82
2020/12/07 03:18:28;;;;;;;48.90;23.30;;;5.00;94.60;;;;;;5052730;28;20021;-80
2020/12/07 03:20:54;;;;;;;44.83;23.20;;;4.90;94.60;;;;;;5052633;28;20040;-82
2020/12/07 03:23:19;;;;;;;49.23;23.90;;;5.00;94.70;;;;;;5052374;28;20115;-79
2020/12/07 03:25:45;;;;;;;53.90;24.47;;;5.10;94.80;;;;;;5053549;28;20159;-81
2020/12/07 03:28:10;;;;;;;43.23;20.87;;;5.00;94.80;;;;;;5052582;28;20473;-81
2020/12/07 03:30:36;;;;;;;48.27;23.43;;;5.00;94.80;;;;;;5035767;28;20025;-82
2020/12/07 03:33:02;;;;;;;45.80;21.23;;;4.90;95.10;;;;;;5036060;28;20365;-81
2020/12/07 03:35:27;;;;;;;41.13;21.27;;;5.00;94.80;;;;;;5035577;28;20083;-81
2020/12/07 03:37:53;;;;;;;39.93;18.97;;;4.90;94.80;;;;;;5053642;28;20094;-81
2020/12/07 03:40:19;;;;;;;40.33;19.13;;;5.00;94.80;;;;;;5052083;28;20478;-81
2020/12/07 03:42:44;;;;;;;44.00;22.23;;;5.00;94.80;;;;;;5052337;28;20033;-81
2020/12/07 03:45:10;;;;;;;43.93;21.10;;;4.90;94.80;;;;;;5052319;28;20032;-81
2020/12/07 03:47:35;;;;;;;43.50;20.37;;;5.00;94.90;;;;;;5053448;28;20036;-82
2020/12/07 03:50:01;;;;;;;37.20;19.37;;;5.00;94.80;;;;;;5052155;28;20428;-82
2020/12/07 03:52:27;;;;;;;38.77;19.07;;;5.00;94.80;;;;;;5052165;28;20500;-80
2020/12/07 03:54:52;;;;;;;35.90;17.43;;;5.00;94.80;;;;;;5051902;28;20029;-81
2020/12/07 03:57:18;;;;;;;33.40;16.77;;;5.00;94.90;;;;;;5052111;28;20087;-82
2020/12/07 03:59:43;;;;;;;34.80;17.13;;;5.00;94.80;;;;;;5051969;28;20040;-81
2020/12/07 04:02:09;;;;;;;38.10;17.40;;;5.00;94.90;;;;;;5053191;28;20033;-82
2020/12/07 04:04:49;;;;;;;34.00;17.27;;;4.90;94.80;;;;;;5053239;28;20029;-81
2020/12/07 04:07:15;;;;;;;32.77;15.77;;;5.00;94.90;;;;;;5041418;28;20076;-81
2020/12/07 04:09:40;;;;;;;27.77;14.97;;;5.00;94.90;;;;;;5039330;28;20535;-81
2020/12/07 04:12:06;;;;;;;29.03;14.57;;;5.00;94.90;;;;;;5057286;28;20035;-81
2020/12/07 04:14:32;;;;;;;29.13;14.10;;;5.00;94.90;;;;;;5055999;28;20052;-81
2020/12/07 04:16:57;;;;;;;25.80;12.67;;;5.00;94.90;;;;;;5039303;28;20391;-82
2020/12/07 04:19:23;;;;;;;21.87;11.73;;;5.00;94.90;;;;;;5057168;28;20041;-81
2020/12/07 04:21:48;;;;;;;25.03;12.03;;;5.00;94.90;;;;;;5057231;28;20489;-82
2020/12/07 04:24:14;;;;;;;22.47;11.63;;;5.00;94.90;;;;;;5039093;28;20029;-81
2020/12/07 04:26:40;;;;;;;25.37;11.33;;;5.00;94.90;;;;;;5039118;28;20458;-82
2020/12/07 04:29:05;;;;;;;21.87;11.00;;;5.10;94.90;;;;;;5057028;28;20535;-82
2020/12/07 04:31:31;;;;;;;19.90;10.07;;;5.10;94.90;;;;;;5056796;28;20104;-81
2020/12/07 04:33:56;;;;;;;19.87;8.47;;;5.10;94.90;;;;;;5038917;28;20025;-81
2020/12/07 04:36:22;;;;;;;16.33;7.90;;;5.10;94.90;;;;;;5038972;28;20029;-81
2020/12/07 04:38:48;;;;;;;18.90;7.83;;;5.10;94.90;;;;;;5056707;28;20084;-81
2020/12/07 04:41:14;;;;;;;15.47;7.70;;;5.10;94.90;;;;;;5055531;28;20068;-81
2020/12/07 04:43:40;;;;;;;14.17;6.83;;;5.10;94.90;;;;;;5056693;28;20040;-82
2020/12/07 04:46:07;;;;;;;11.00;6.13;;;5.10;94.90;;;;;;5038936;28;20040;-82
2020/12/07 04:48:35;;;;;;;12.57;6.00;;;5.10;94.90;;;;;;5038646;28;20044;-82
2020/12/07 04:51:02;;;;;;;13.80;5.73;;;5.20;94.90;;;;;;5055203;28;20131;-81
2020/12/07 04:53:29;;;;;;;13.87;6.90;;;5.20;94.90;;;;;;5056444;28;20037;-81
2020/12/07 04:55:57;;;;;;;15.53;6.07;;;5.10;94.90;;;;;;5056407;28;20484;-81
2020/12/07 04:58:25;;;;;;;12.17;5.57;;;5.10;94.90;;;;;;5055133;28;20029;-81
2020/12/07 05:00:51;;;;;;;14.80;6.70;;;5.20;94.90;;;;;;5054909;28;20373;-82
2020/12/07 05:03:16;;;;;;;14.50;6.17;;;5.20;94.90;;;;;;5056290;28;20112;-80
2020/12/07 05:05:42;;;;;;;15.37;6.90;;;5.30;94.90;;;;;;5054910;28;20365;-81
2020/12/07 05:08:07;;;;;;;13.10;5.60;;;5.20;94.90;;;;;;5055212;28;20040;-81
2020/12/07 05:10:39;;;;;;;13.87;6.33;;;5.20;94.90;;;;;;5054896;28;20369;-81
2020/12/07 05:15:39;;;;;;;14.10;5.80;;;5.20;94.90;;;;;;5055207;28;20029;-82
2020/12/07 05:18:05;;;;;;;17.00;7.90;;;5.20;94.90;;;;;;5053579;28;20025;-82
2020/12/07 05:20:31;;;;;;;17.40;7.60;;;5.20;94.90;;;;;;5054685;28;20044;-81
2020/12/07 05:22:56;;;;;;;15.17;7.43;;;5.20;94.90;;;;;;5055967;28;20059;-81
2020/12/07 05:25:23;;;;;;;15.87;6.87;;;5.20;94.90;;;;;;5056221;28;20396;-81
2020/12/07 05:27:50;;;;;;;18.43;7.27;;;5.20;95.00;;;;;;5055759;28;20094;-82
2020/12/07 05:30:29;;;;;;;17.43;8.63;;;5.20;95.00;;;;;;5054347;28;20392;-81
2020/12/07 05:32:55;;;;;;;16.50;6.37;;;5.20;95.00;;;;;;5055746;28;20051;-82
2020/12/07 05:35:20;;;;;;;14.07;7.23;;;5.20;95.00;;;;;;5037796;28;20032;-80
2020/12/07 05:37:46;;;;;;;17.10;8.87;;;5.20;95.00;;;;;;5055602;28;20037;-81
2020/12/07 05:40:14;;;;;;;19.03;9.17;;;5.20;95.00;;;;;;5055404;28;20476;-81
2020/12/07 05:42:40;;;;;;;16.80;7.90;;;5.20;95.00;;;;;;5055412;28;20033;-82
2020/12/07 05:45:07;;;;;;;19.87;8.50;;;5.20;95.00;;;;;;5054409;28;20033;-81
2020/12/07 05:47:37;;;;;;;17.07;8.30;;;5.20;95.00;;;;;;5055292;28;20136;-82
2020/12/07 05:50:04;;;;;;;21.57;8.97;;;5.20;95.00;;;;;;5053935;28;20407;-82
2020/12/07 05:52:44;;;;;;;16.20;7.47;;;5.20;95.00;;;;;;5054123;28;20036;-81
2020/12/07 05:55:12;;;;;;;16.47;7.73;;;5.30;95.00;;;;;;5053954;28;20029;-81
2020/12/07 05:58:02;;;;;;;18.23;9.40;;;5.20;95.00;;;;;;5055027;28;20060;-80
2020/12/07 06:00:33;;;;;;;20.33;9.23;;;5.30;95.00;;;;;;5055171;28;20419;-82
2020/12/07 06:03:02;;;;;;;18.50;8.53;;;5.30;95.00;;;;;;5055294;28;20112;-82
2020/12/07 06:05:28;;;;;;;18.10;8.27;;;5.30;95.00;;;;;;5055249;28;20380;-82
2020/12/07 06:08:15;;;;;;;18.07;8.90;;;5.30;95.00;;;;;;5053685;28;20029;-81
2020/12/07 06:11:04;;;;;;;15.83;7.33;;;5.30;95.00;;;;;;5058374;28;20071;-82
2020/12/07 06:13:32;;;;;;;14.10;7.10;;;5.30;95.00;;;;;;5069196;28;20035;-82
2020/12/07 06:16:03;;;;;;;15.77;7.20;;;5.30;95.00;;;;;;5074873;28;20063;-82
2020/12/07 06:18:30;;;;;;;15.27;6.87;;;5.30;95.00;;;;;;5073503;28;20396;-82
2020/12/07 06:21:15;;;;;;;13.10;6.60;;;5.30;95.00;;;;;;5056866;28;20542;-81
2020/12/07 06:23:41;;;;;;;13.27;6.63;;;5.40;95.10;;;;;;5074691;28;20035;-82
2020/12/07 06:26:09;;;;;;;13.63;6.37;;;5.40;95.10;;;;;;5071801;28;20111;-82
2020/12/07 06:28:37;;;;;;;15.77;7.57;;;5.30;95.10;;;;;;5073038;28;20032;-82
2020/12/07 06:31:08;;;;;;;12.83;6.30;;;5.50;95.10;;;;;;5071278;28;20112;-82
2020/12/07 06:33:39;;;;;;;16.73;6.63;;;5.40;95.10;;;;;;5074177;28;20028;-82
2020/12/07 06:36:05;;;;;;;12.30;5.90;;;5.40;95.10;;;;;;5073593;28;20032;-73
2020/12/07 06:38:43;;;;;;;14.73;5.87;;;5.40;95.10;;;;;;5067223;28;20107;-73
2020/12/07 06:41:10;;;;;;;15.83;6.17;;;5.50;95.20;;;;;;5057702;28;20055;-73
2020/12/07 06:43:35;;;;;;;17.30;7.10;;;5.40;95.10;;;;;;5064535;28;20028;-73
2020/12/07 06:46:01;;;;;;;13.87;5.93;;;5.40;95.10;;;;;;5061390;28;20037;-73
2020/12/07 06:48:27;;;;;;;14.60;6.37;;;5.40;95.10;;;;;;5071643;28;20028;-73
2020/12/07 06:50:55;;;;;;;13.57;6.10;;;5.40;95.10;;;;;;5065522;28;20480;-73
2020/12/07 06:53:48;;;;;;;14.40;5.77;;;5.40;95.10;;;;;;5067967;28;20099;-73
2020/12/07 06:56:11;;;;;;;14.03;5.63;;;5.40;95.10;;;;;;5070744;28;20202;-74
2020/12/07 06:58:39;;;;;;;14.57;5.43;;;5.50;95.10;;;;;;5074307;28;20056;-74
2020/12/07 07:01:13;;;;;;;13.13;5.30;;;5.50;95.10;;;;;;5069028;28;20100;-74
2020/12/07 07:03:51;;;;;;;12.05;4.05;;;5.30;95.10;;;;;;5054253;28;20025;-74
2020/12/07 07:06:21;;;;;;;14.07;5.37;;;5.40;95.10;;;;;;5053461;28;20021;-74
2020/12/07 07:08:53;;;;;;;12.07;5.40;;;5.40;95.10;;;;;;5072491;28;20027;-73
2020/12/07 07:11:19;;;;;;;12.63;5.60;;;5.40;95.10;;;;;;5073478;28;20514;-73
2020/12/07 07:13:49;;;;;;;12.07;5.60;;;5.50;95.20;;;;;;5073484;28;20028;-73
2020/12/07 07:16:16;;;;;;;14.30;6.23;;;5.40;95.10;;;;;;5072680;28;20553;-73
2020/12/07 07:18:42;;;;;;;12.33;5.03;;;5.50;95.20;;;;;;5072270;28;20387;-73
2020/12/07 07:21:08;;;;;;;12.53;5.37;;;5.60;95.20;;;;;;5073290;28;20028;-73
2020/12/07 07:23:41;;;;;;;10.47;4.70;;;5.50;95.20;;;;;;5073590;28;20107;-82
2020/12/07 07:26:27;;;;;;;8.93;3.58;;;5.40;95.10;;;;;;5072057;28;20021;-82
2020/12/07 07:28:53;;;;;;;11.63;4.03;;;5.50;95.20;;;;;;5072573;28;20090;-81
2020/12/07 07:31:19;;;;;;;10.67;4.60;;;5.50;95.20;;;;;;5052046;28;20473;-83
2020/12/07 07:33:45;;;;;;;11.43;5.03;;;5.50;95.20;;;;;;5071025;28;20476;-82
2020/12/07 07:36:21;;;;;;;12.00;5.37;;;5.40;95.10;;;;;;5072006;28;20383;-81
2020/12/07 07:38:52;;;;;;;10.33;3.77;;;5.60;95.20;;;;;;5072084;28;20536;-80
2020/12/07 07:41:25;;;;;;;11.30;4.27;;;5.50;95.20;;;;;;5072768;28;20024;-80
2020/12/07 07:43:51;;;;;;;11.60;5.37;;;5.50;95.20;;;;;;5072210;28;20037;-84
2020/12/07 07:46:18;;;;;;;11.83;4.47;;;5.40;95.10;;;;;;5063674;28;20033;-81
2020/12/07 07:49:12;;;;;;;7.80;3.67;;;5.40;95.10;;;;;;5053089;28;20036;-80
2020/12/07 08:00:28;;;;;;;6.07;2.27;;;5.40;95.10;;;;;;5053359;28;20053;-80
2020/12/07 08:18:05;;;;;;;3.85;1.25;;;5.40;95.20;;;;;;5033538;28;20041;-74
2020/12/07 08:20:32;;;;;;;3.53;1.20;;;5.40;95.10;;;;;;5053134;28;20040;-73
2020/12/07 08:23:04;;;;;;;3.00;1.17;;;5.40;95.20;;;;;;5052979;28;20484;-73
2020/12/07 08:25:50;;;;;;;3.23;1.30;;;5.40;95.20;;;;;;5052655;28;20044;-74
2020/12/07 08:28:26;;;;;;;3.20;1.07;;;5.40;95.20;;;;;;5052898;28;20029;-74
2020/12/07 08:31:06;;;;;;;2.60;0.97;;;5.40;95.20;;;;;;5052881;28;20021;-74
2020/12/07 08:33:40;;;;;;;3.73;0.90;;;5.40;95.20;;;;;;5051648;28;20025;-74
2020/12/07 08:36:08;;;;;;;2.35;0.80;;;5.40;95.20;;;;;;5052882;28;20499;-74
2020/12/07 08:38:36;;;;;;;4.63;1.43;;;5.50;95.20;;;;;;5052835;28;20476;-74
2020/12/07 08:41:19;;;;;;;3.07;1.03;;;5.50;95.20;;;;;;5052808;28;20380;-73
2020/12/07 08:43:50;;;;;;;3.17;1.00;;;5.50;95.20;;;;;;5052777;28;20036;-74
2020/12/07 08:46:19;;;;;;;2.00;0.60;;;5.50;95.20;;;;;;5051400;28;20549;-73
2020/12/07 08:48:44;;;;;;;3.33;1.00;;;5.50;95.30;;;;;;5053338;28;20116;-73
2020/12/07 08:51:10;;;;;;;3.27;0.90;;;5.50;95.20;;;;;;5052954;28;20072;-74
2020/12/07 08:53:37;;;;;;;3.70;1.13;;;5.50;95.20;;;;;;5056433;28;20472;-73
2020/12/07 08:56:04;;;;;;;3.07;1.00;;;5.50;95.20;;;;;;5056509;28;20025;-73
2020/12/07 08:58:30;;;;;;;3.73;1.10;;;5.50;95.20;;;;;;5055115;28;20028;-73
2020/12/07 09:00:58;;;;;;;2.40;0.90;;;5.40;95.20;;;;;;5063353;28;20094;-73
2020/12/07 09:03:23;;;;;;;3.53;1.20;;;5.50;95.20;;;;;;5063866;28;20064;-73
2020/12/07 09:05:49;;;;;;;5.07;1.47;;;5.50;95.20;;;;;;5056555;28;20071;-73
2020/12/07 09:08:15;;;;;;;4.13;1.30;;;5.50;95.20;;;;;;5063983;28;20036;-74
2020/12/07 09:10:40;;;;;;;4.03;1.10;;;5.50;95.20;;;;;;5062893;28;20039;-73
2020/12/07 09:13:06;;;;;;;3.53;1.20;;;5.50;95.30;;;;;;5064173;28;20388;-73
2020/12/07 09:15:32;;;;;;;4.30;1.40;;;5.50;95.30;;;;;;5045623;28;20067;-73
2020/12/07 09:17:59;;;;;;;2.63;1.00;;;5.50;95.30;;;;;;5051586;28;20052;-74
2020/12/07 09:20:24;;;;;;;3.37;1.07;;;5.50;95.20;;;;;;5063803;28;20028;-73
2020/12/07 09:22:50;;;;;;;4.23;1.63;;;5.50;95.30;;;;;;5069746;28;20032;-74
2020/12/07 09:25:16;;;;;;;5.50;1.63;;;5.40;95.20;;;;;;5057879;28;20090;-73
2020/12/07 09:27:41;;;;;;;4.63;1.73;;;5.40;95.20;;;;;;5057720;28;20031;-74
2020/12/07 09:30:07;;;;;;;4.80;1.90;;;5.40;95.20;;;;;;5041292;28;20538;-73
2020/12/07 09:32:33;;;;;;;5.00;1.63;;;5.40;95.20;;;;;;5057799;28;20024;-74
2020/12/07 09:34:59;;;;;;;5.57;1.50;;;5.40;95.30;;;;;;5074222;28;20107;-73
2020/12/07 09:37:25;;;;;;;4.07;1.53;;;5.40;95.30;;;;;;5057733;28;20491;-80
2020/12/07 09:39:51;;;;;;;4.90;1.90;;;5.40;95.30;;;;;;5075643;28;20038;-81
2020/12/07 09:42:16;;;;;;;4.17;1.57;;;5.40;95.30;;;;;;5075723;28;20028;-82
2020/12/07 09:44:42;;;;;;;5.87;2.03;;;5.50;95.40;;;;;;5075501;28;20495;-80
2020/12/07 09:47:08;;;;;;;2.73;1.20;;;5.40;95.30;;;;;;5075306;28;20491;-79
2020/12/07 09:49:33;;;;;;;3.77;1.23;;;5.40;95.40;;;;;;5057479;28;20061;-82
2020/12/07 09:51:59;;;;;;;3.67;1.30;;;5.40;95.40;;;;;;5057350;28;20016;-81
2020/12/07 09:54:24;;;;;;;2.50;0.83;;;5.40;95.40;;;;;;5074059;28;20062;-79
2020/12/07 09:56:50;;;;;;;4.23;1.23;;;5.50;95.50;;;;;;5057412;28;20423;-81
2020/12/07 09:59:16;;;;;;;3.23;1.10;;;5.40;95.70;;;;;;5074153;28;20035;-81
2020/12/07 10:01:41;;;;;;;3.13;1.10;;;5.50;95.40;;;;;;5057142;28;20028;-80
2020/12/07 10:04:07;;;;;;;4.10;1.17;;;5.50;95.40;;;;;;5073353;28;20021;-80
2020/12/07 10:06:32;;;;;;;3.73;1.10;;;5.50;95.40;;;;;;5057474;28;20380;-78
2020/12/07 10:08:58;;;;;;;3.93;1.10;;;5.50;95.40;;;;;;5073653;28;20502;-80
2020/12/07 10:11:24;;;;;;;2.93;1.10;;;5.50;95.40;;;;;;5057026;28;20090;-81
2020/12/07 10:13:49;;;;;;;2.90;1.00;;;5.50;95.40;;;;;;5040508;28;20566;-83
2020/12/07 10:16:15;;;;;;;3.27;1.27;;;5.50;95.40;;;;;;5056944;28;20020;-80
2020/12/07 10:18:41;;;;;;;5.17;1.57;;;5.60;95.70;;;;;;5074074;28;20430;-81
2020/12/07 10:21:07;;;;;;;3.13;1.07;;;5.60;95.40;;;;;;5056831;28;20028;-83
2020/12/07 10:23:33;;;;;;;3.47;1.13;;;5.50;95.40;;;;;;5074702;28;20028;-81
2020/12/07 10:25:58;;;;;;;4.23;1.10;;;5.60;95.50;;;;;;5056609;28;20031;-80
2020/12/07 10:28:24;;;;;;;4.10;1.40;;;5.50;95.50;;;;;;5074593;28;20028;-82
2020/12/07 10:30:49;;;;;;;4.37;1.60;;;5.60;95.50;;;;;;5073675;28;20091;-81
2020/12/07 10:33:16;;;;;;;3.13;1.10;;;5.60;95.50;;;;;;5073285;28;20028;-80
2020/12/07 10:35:41;;;;;;;4.30;1.30;;;5.60;95.50;;;;;;5073119;28;20024;-83
2020/12/07 10:38:07;;;;;;;3.70;1.37;;;5.60;95.50;;;;;;5074517;28;20506;-81
2020/12/07 10:40:32;;;;;;;4.17;1.50;;;5.60;95.40;;;;;;5073242;28;20507;-81
2020/12/07 10:42:58;;;;;;;3.63;1.27;;;5.60;95.40;;;;;;5072503;28;20025;-81
2020/12/07 10:45:24;;;;;;;4.63;1.50;;;5.60;95.40;;;;;;5036432;28;20483;-82
2020/12/07 10:47:52;;;;;;;4.73;1.40;;;5.60;95.50;;;;;;5036430;28;20555;-81
2020/12/07 10:50:19;;;;;;;5.53;1.50;;;5.60;95.40;;;;;;5069211;28;20041;-80
2020/12/07 10:52:44;;;;;;;5.83;2.10;;;5.50;95.40;;;;;;5068454;28;20422;-81
2020/12/07 10:55:10;;;;;;;5.23;1.67;;;5.50;95.40;;;;;;5056272;28;20029;-80
2020/12/07 10:57:36;;;;;;;5.70;1.57;;;5.50;95.40;;;;;;5073035;28;20028;-81
2020/12/07 11:00:06;;;;;;;4.97;1.80;;;5.50;95.40;;;;;;5039538;28;20059;-82
2020/12/07 11:02:32;;;;;;;4.47;1.40;;;5.50;95.40;;;;;;5072672;28;20060;-79
2020/12/07 11:04:58;;;;;;;5.03;1.50;;;5.50;95.40;;;;;;5056043;28;20052;-81
2020/12/07 11:07:25;;;;;;;5.00;1.70;;;5.50;95.40;;;;;;5073989;28;20383;-82
2020/12/07 11:09:51;;;;;;;5.03;1.77;;;5.50;95.40;;;;;;5073895;28;20025;-81
2020/12/07 11:12:20;;;;;;;4.27;1.60;;;5.50;95.40;;;;;;5055518;28;20023;-79
2020/12/07 11:14:46;;;;;;;4.07;1.47;;;5.40;95.40;;;;;;5072284;28;20491;-81
2020/12/07 11:17:11;;;;;;;4.53;1.20;;;5.40;95.40;;;;;;5073554;28;20024;-80
2020/12/07 11:19:37;;;;;;;4.77;1.33;;;5.40;95.40;;;;;;5072375;28;20029;-80
2020/12/07 11:22:03;;;;;;;5.57;1.87;;;5.40;95.30;;;;;;5073913;28;20024;-80
2020/12/07 11:24:29;;;;;;;5.37;1.73;;;5.40;95.30;;;;;;5072573;28;20124;-82
2020/12/07 11:26:55;;;;;;;5.40;1.50;;;5.40;95.40;;;;;;5072896;28;20039;-81
2020/12/07 11:29:20;;;;;;;5.57;1.30;;;5.40;95.40;;;;;;5073728;28;20029;-81
2020/12/07 11:31:47;;;;;;;7.40;1.50;;;5.40;95.40;;;;;;5072311;28;20024;-81
2020/12/07 11:34:19;;;;;;;4.67;1.30;;;5.40;95.30;;;;;;5067627;28;20590;-81
2020/12/07 11:36:49;;;;;;;4.83;1.30;;;5.30;95.30;;;;;;5053622;28;20025;-81
2020/12/07 11:44:17;;;;;;;5.60;1.60;;;5.30;95.30;;;;;;5073463;28;20032;-79
2020/12/07 11:46:50;;;;;;;5.67;1.40;;;5.30;95.30;;;;;;5070606;28;20468;-80
2020/12/07 11:49:16;;;;;;;6.90;1.80;;;5.30;95.30;;;;;;5073396;28;20032;-81
2020/12/07 11:51:41;;;;;;;6.83;1.90;;;5.30;95.40;;;;;;5055357;28;20498;-81
2020/12/07 11:54:07;;;;;;;7.40;1.77;;;5.30;95.40;;;;;;5053889;28;20028;-80
2020/12/07 11:56:35;;;;;;;5.40;1.80;;;5.30;95.40;;;;;;5057246;28;20029;-80
2020/12/07 11:59:01;;;;;;;4.57;1.30;;;5.40;95.70;;;;;;5035640;28;20083;-80
2020/12/07 12:01:29;;;;;;;4.83;1.43;;;5.30;95.40;;;;;;5053323;28;20381;-81
2020/12/07 12:03:55;;;;;;;5.13;1.77;;;5.30;95.40;;;;;;5051967;28;20025;-80
2020/12/07 12:06:25;;;;;;;4.60;0.90;;;5.30;95.50;;;;;;5052003;28;20056;-80
2020/12/07 12:08:52;;;;;;;4.33;1.10;;;5.40;95.50;;;;;;5053358;28;20112;-81
2020/12/07 12:11:18;;;;;;;4.37;1.30;;;5.40;95.50;;;;;;5051889;28;20025;-79
2020/12/07 12:13:44;;;;;;;4.53;1.27;;;5.40;95.50;;;;;;5035304;28;20155;-80
2020/12/07 12:16:12;;;;;;;5.60;1.37;;;5.40;95.40;;;;;;5053394;28;20025;-80
2020/12/07 12:18:38;;;;;;;5.37;1.40;;;5.40;95.70;;;;;;5051877;28;20119;-81
2020/12/07 12:21:04;;;;;;;4.67;1.57;;;5.40;95.40;;;;;;5051812;28;20060;-80
2020/12/07 12:23:30;;;;;;;4.23;1.20;;;5.40;95.40;;;;;;5056752;28;20876;-80
2020/12/07 12:25:55;;;;;;;4.60;1.27;;;5.40;95.40;;;;;;5072891;28;20067;-80
2020/12/07 12:28:22;;;;;;;5.93;1.60;;;5.30;95.60;;;;;;5059033;28;20029;-80
2020/12/07 12:30:47;;;;;;;6.20;1.73;;;5.30;95.30;;;;;;5059182;28;20369;-81
2020/12/07 12:33:14;;;;;;;4.47;1.30;;;5.30;95.30;;;;;;5058825;28;20023;-81
2020/12/07 12:35:39;;;;;;;5.33;1.43;;;5.30;95.30;;;;;;5075434;28;20077;-83
2020/12/07 12:38:05;;;;;;;5.20;1.50;;;5.30;95.30;;;;;;5075489;28;20036;-81
2020/12/07 12:40:30;;;;;;;4.67;1.30;;;5.20;95.50;;;;;;5075495;28;20029;-81
2020/12/07 12:42:56;;;;;;;4.07;1.10;;;5.20;95.20;;;;;;5075562;28;20036;-81
2020/12/07 12:45:21;;;;;;;3.93;1.30;;;5.20;95.20;;;;;;5073126;28;20039;-81
2020/12/07 12:47:47;;;;;;;4.30;1.07;;;5.20;95.30;;;;;;5056604;28;20472;-83
2020/12/07 12:50:14;;;;;;;6.23;1.20;;;5.20;95.20;;;;;;5055080;28;20049;-72
2020/12/07 12:52:40;;;;;;;3.63;1.10;;;5.10;95.20;;;;;;5059261;28;20029;-72
2020/12/07 12:55:05;;;;;;;5.67;1.10;;;5.10;95.20;;;;;;5075232;28;20035;-72
2020/12/07 12:57:31;;;;;;;4.57;1.40;;;5.10;95.30;;;;;;5076654;28;20375;-72
2020/12/07 12:59:57;;;;;;;5.87;1.63;;;5.10;95.20;;;;;;5076445;28;20472;-73
2020/12/07 13:02:23;;;;;;;4.30;1.33;;;5.00;95.20;;;;;;5076267;28;20113;-73
2020/12/07 13:04:48;;;;;;;5.30;1.60;;;5.00;95.30;;;;;;5074533;28;20030;-73
2020/12/07 13:07:14;;;;;;;3.70;1.20;;;5.00;95.30;;;;;;5074940;28;20024;-73
2020/12/07 13:09:40;;;;;;;4.63;1.17;;;5.00;95.30;;;;;;5071856;28;20119;-73
2020/12/07 13:12:05;;;;;;;4.50;1.63;;;5.00;95.30;;;;;;5067547;28;20024;-72
2020/12/07 13:14:31;;;;;;;3.97;1.20;;;5.10;95.30;;;;;;5075128;28;20551;-72
2020/12/07 13:17:09;;;;;;;4.13;1.20;;;4.90;95.30;;;;;;5075685;28;20067;-73
2020/12/07 13:19:34;;;;;;;3.80;1.00;;;4.90;95.30;;;;;;5075597;28;20469;-72